Latest Coastal Weather Observations for Cape Sorell

IDT60701

Issued at 6:22 pm EST Tuesday 25 April 2017 (issued every 10 minutes, with the page automatically refreshed every 10 minutes)

About coastal observations | Map of coastal stations | Coastal observations for TAS | Marine services | Other Formats
Station Details ID: 097000 Name: CAPE SORELL Lat: -42.20 Lon: 145.17 Height: 19.3 m
Data from the previous 72 hours. | See also: Recent months at Cape Sorell
Date/Time
EST
Temp
°C
Wind Pressure Rain since
9am
mm
Weather Cloud Vis
km
Sea
Height
m
Swell
Dir  Spd
kts
Gust
kts
hPa Trend Height
m
Period
s
Dir
25/06:00pm 13.8 NW 16 21 1000.6 - 0.2 - - - - - - -
25/05:30pm 14.1 NW 13 20 1000.7 - 0.2 - - - - - - -
25/05:00pm 14.1 NW 14 19 1000.8 - 0.2 - - - - - - -
25/04:30pm 14.6 NW 13 17 1001.0 - 0.2 - - - - - - -
25/04:00pm 15.4 NW 12 17 1001.3 - 0.2 - - - - - - -
25/03:30pm 15.4 NW 12 16 1001.3 - 0.2 - - - - - - -
25/03:00pm 15.1 WNW 12 16 1001.5 - 0.2 - - - - - - -
25/02:30pm 14.8 WNW 10 13 1001.9 - 0.2 - - - - - - -
25/02:00pm 15.0 WNW 11 14 1002.2 - 0.2 - - - - - - -
25/01:30pm 16.7 NW 10 13 1002.6 - 0.2 - - - - - - -
25/01:00pm 15.8 NW 10 13 1003.4 - 0.2 - - - - - - -
25/12:30pm 15.4 NW 7 9 1003.9 - 0.2 - - - - - - -
25/12:00pm 16.6 NW 7 10 1004.3 - 0.2 Recent precip. - - - - - -
25/11:30am 16.2 WNW 8 11 1004.8 - 0.0 - - - - - - -
25/11:00am 14.6 NW 7 10 1005.2 - 0.0 - - - - - - -
25/10:30am 14.6 NW 6 8 1005.4 - 0.0 - - - - - - -
25/10:00am 15.1 NW 6 9 1005.9 - 0.0 - - - - - - -
25/09:30am 14.6 WNW 6 8 1006.1 - 0.0 - - - - - - -
25/09:00am 14.4 WNW 5 8 1006.3 - 0.0 - - - - - - -
25/08:30am 13.6 WNW 5 7 1006.6 - 0.0 - - - - - - -
25/08:00am 13.4 WNW 7 9 1006.6 - 0.0 - - - - - - -
25/07:30am 13.7 W 7 11 1006.5 - 0.0 - - - - - - -
25/07:00am 13.7 W 9 13 1006.6 - 0.0 - - - - - - -
25/06:30am 13.6 WNW 9 11 1006.7 - 0.0 - - - - - - -
25/06:00am 13.6 W 8 12 1006.8 - 0.0 - - - - - - -
25/05:30am 13.5 W 7 10 1006.8 - 0.0 - - - - - - -
25/05:00am 13.8 W 6 9 1007.0 - 0.0 - - - - - - -
25/04:30am 13.8 WNW 5 7 1007.4 - 0.0 - - - - - - -
25/04:00am 13.8 WSW 4 6 1007.4 - 0.0 - - - - - - -
25/03:30am 13.8 W 4 6 1007.7 - 0.0 - - - - - - -
25/03:00am 13.7 WSW 3 5 1008.1 - 0.0 - - - - - - -
25/02:30am 13.7 W 3 4 1008.4 - 0.0 - - - - - - -
25/02:00am 13.9 W 4 6 1009.0 - 0.0 - - - - - - -
25/01:30am 13.9 WNW 4 5 1009.8 - 0.0 - - - - - - -
25/01:00am 13.7 WNW 4 6 1010.0 - 0.0 - - - - - - -
25/12:30am 13.8 WNW 5 7 1010.4 - 0.0 - - - - - - -
25/12:00am 14.0 WNW 5 7 1011.0 - 0.0 - - - - - - -
 
Date/Time
EST
Temp
°C
Wind Pressure Rain since
9am
mm
Weather Cloud Vis
km
Sea
Height
m
Swell
Dir  Spd
kts
Gust
kts
hPa Trend Height
m
Period
s
Dir
24/11:30pm 14.0 WNW 5 7 1011.4 - 0.0 - - - - - - -
24/11:00pm 14.0 NW 4 6 1011.9 - 0.0 - - - - - - -
24/10:30pm 14.0 NW 4 6 1012.2 - 0.0 - - - - - - -
24/10:00pm 14.1 NW 4 7 1012.4 - 0.0 - - - - - - -
24/09:30pm 14.0 NW 3 5 1012.7 - 0.0 - - - - - - -
24/09:00pm 14.0 WNW 3 4 1012.9 - 0.0 - - - - - - -
24/08:30pm 14.1 WNW 5 6 1013.2 - 0.0 - - - - - - -
24/08:00pm 14.1 WNW 4 5 1013.5 - 0.0 - - - - - - -
24/07:30pm 14.4 W 5 7 1013.5 - 0.0 - - - - - - -
24/07:00pm 14.8 WNW 6 9 1013.7 - 0.0 - - - - - - -
24/06:30pm 14.8 WNW 5 6 1013.8 - 0.0 - - - - - - -
24/06:00pm 14.8 WNW 7 9 1014.0 - 0.0 - - - - - - -
24/05:30pm 14.7 NW 7 9 1013.9 - 0.0 - - - - - - -
24/05:00pm 14.9 NW 6 8 1014.0 - 0.0 - - - - - - -
24/04:30pm 15.3 WNW 6 8 1014.3 - 0.0 - - - - - - -
24/04:00pm 15.5 NW 9 11 1014.5 - 0.0 - - - - - - -
24/03:30pm 15.5 WNW 8 11 1014.7 - 0.0 - - - - - - -
24/03:00pm 16.2 NW 4 5 1014.6 - 0.0 - - - - - - -
24/02:30pm 16.0 WNW 8 9 1014.9 - 0.0 - - - - - - -
24/02:00pm 16.3 WNW 6 8 1015.1 - 0.0 - - - - - - -
24/01:30pm 16.5 NNW 4 6 1015.5 - 0.0 - - - - - - -
24/01:00pm 16.0 N 6 8 1016.1 - 0.0 - - - - - - -
24/12:30pm 15.8 NNW 5 6 1016.7 - 0.0 - - - - - - -
24/12:00pm 15.7 N 4 5 1017.2 - 0.0 - - - - - - -
24/11:30am 16.2 NW 4 7 1017.6 - 0.0 - - - - - - -
24/11:00am 15.9 WNW 5 7 1017.9 - 0.0 - - - - - - -
24/10:30am 16.3 NW 5 7 1018.1 - 0.0 - - - - - - -
24/10:00am 15.4 NNE 4 5 1018.4 - 0.0 - - - - - - -
24/09:30am 15.2 NE 5 7 1018.7 - 0.0 - - - - - - -
24/09:00am 14.9 ENE 6 9 1018.7 - 4.0 - - - - - - -
24/08:30am 14.7 ENE 6 8 1018.9 - 4.0 - - - - - - -
24/08:00am 14.6 ENE 8 11 1018.9 - 4.0 - - - - - - -
24/07:30am 14.7 NE 9 12 1018.8 - 4.0 - - - - - - -
24/07:00am 14.8 ENE 11 16 1018.6 - 4.0 - - - - - - -
24/06:30am 14.9 NE 7 8 1019.4 - 3.8 - - - - - - -
24/06:00am 15.0 N 3 4 1019.7 - 3.6 Recent precip. - - - - - -
24/05:30am 14.9 N 2 3 1019.9 - 3.4 - - - - - - -
24/05:00am 15.1 NNW 5 6 1019.9 - 2.8 - - - - - - -
24/04:30am 15.0 N 7 8 1019.9 - 1.6 - - - - - - -
24/04:00am 15.0 N 5 7 1020.3 - 1.0 - - - - - - -
24/03:30am 15.0 NE 4 5 1020.5 - 0.6 - - - - - - -
24/03:00am 14.7 E 5 6 1020.7 - 0.2 Recent precip. - - - - - -
24/02:30am 14.7 E 5 7 1021.0 - 0.0 - - - - - - -
24/02:00am 14.6 E 6 7 1021.1 - 0.0 - - - - - - -
24/01:30am 14.5 E 6 7 1021.3 - 0.0 - - - - - - -
24/01:00am 14.6 E 4 5 1021.6 - 0.0 - - - - - - -
24/12:30am 14.8 ESE 3 4 1021.8 - 0.0 - - - - - - -
24/12:00am 14.7 SE 2 3 1022.0 - 0.0 - - - - - - -
 
Date/Time
EST
Temp
°C
Wind Pressure Rain since
9am
mm
Weather Cloud Vis
km
Sea
Height
m
Swell
Dir  Spd
kts
Gust
kts
hPa Trend Height
m
Period
s
Dir
23/11:30pm 14.9 SSE 1 1 1022.3 - 0.0 - - - - - - -
23/11:00pm 14.3 SSE 2 2 1022.5 - 0.0 - - - - - - -
23/10:30pm 14.9 S 1 2 1022.8 - 0.0 - - - - - - -
23/10:00pm 14.7 SSW 2 3 1022.9 - 0.0 - - - - - - -
23/09:30pm 14.7 CALM 0 2 1023.1 - 0.0 - - - - - - -
23/09:00pm 14.5 ENE 4 4 1022.9 - 0.0 - - - - - - -
23/08:30pm 14.5 SE 2 3 1023.0 - 0.0 - - - - - - -
23/08:00pm 14.4 E 4 5 1022.9 - 0.0 - - - - - - -
23/07:30pm 14.3 SE 5 8 1023.0 - 0.0 - - - - - - -
23/07:00pm 15.0 S 11 15 1022.8 - 0.0 - - - - - - -
23/06:30pm 15.5 S 11 15 1022.6 - 0.0 - - - - - - -
23/06:00pm 15.6 S 8 13 1022.4 - 0.0 - - - - - - -
23/05:30pm 15.8 S 9 13 1022.4 - 0.0 - - - - - - -
23/05:00pm 16.0 S 9 11 1022.3 - 0.0 - - - - - - -
23/04:30pm 15.8 S 13 17 1022.4 - 0.0 - - - - - - -
23/04:00pm 15.9 S 17 23 1022.4 - 0.0 - - - - - - -
23/03:30pm 16.4 S 17 22 1022.4 - 0.0 - - - - - - -
23/03:00pm 17.0 S 17 21 1022.4 - 0.0 - - - - - - -
23/02:30pm 16.6 S 14 18 1022.6 - 0.0 - - - - - - -
23/02:00pm 17.3 S 13 16 1022.8 - 0.0 - - - - - - -
23/01:30pm 16.7 S 14 17 1023.0 - 0.0 - - - - - - -
23/01:00pm 17.0 SSW 12 14 1023.2 - 0.0 - - - - - - -
23/12:30pm 16.9 SSW 10 11 1023.4 - 0.0 - - - - - - -
23/12:00pm 16.7 S 8 11 1023.8 - 0.0 - - - - - - -
23/11:30am 16.0 S 8 11 1024.0 - 0.0 - - - - - - -
23/11:00am 15.6 S 11 13 1024.5 - 0.0 - - - - - - -
23/10:30am 15.0 SSW 11 14 1024.7 - 0.0 - - - - - - -
23/10:00am 14.7 S 10 13 1024.7 - 0.0 - - - - - - -
23/09:30am 14.5 S 10 13 1024.8 - 0.0 - - - - - - -
23/09:00am 13.9 S 13 16 1024.8 - 0.0 - - - - - - -
23/08:30am 13.6 S 13 17 1024.7 - 0.0 - - - - - - -
23/08:00am 13.6 S 16 20 1024.4 - 0.0 - - - - - - -
23/07:30am 13.4 S 13 17 1024.5 - 0.0 - - - - - - -
23/07:00am 13.4 SSE 11 15 1024.3 - 0.0 - - - - - - -
23/06:30am 13.6 S 13 17 1024.1 - 0.0 - - - - - - -
23/06:00am 13.6 SSE 11 15 1024.0 - 0.0 - - - - - - -
23/05:30am 13.7 SSE 13 18 1023.9 - 0.0 - - - - - - -
23/05:00am 14.0 S 16 20 1023.7 - 0.0 - - - - - - -
23/04:30am 14.2 S 15 20 1023.3 - 0.0 - - - - - - -
23/04:00am 14.1 S 15 18 1023.1 - 0.0 - - - - - - -
23/03:30am 14.3 S 16 20 1023.3 - 0.0 - - - - - - -
23/03:00am 14.6 S 14 18 1023.5 - 0.0 - - - - - - -
23/02:30am 14.7 S 15 19 1023.6 - 0.0 - - - - - - -
23/02:00am 14.9 S 15 20 1023.7 - 0.0 - - - - - - -
23/01:30am 15.0 S 17 22 1023.6 - 0.0 - - - - - - -
23/01:00am 15.1 S 14 18 1023.4 - 0.0 - - - - - - -
23/12:30am 15.2 S 14 17 1023.5 - 0.0 - - - - - - -
23/12:00am 15.3 S 14 20 1023.5 - 0.0 - - - - - - -
 
Date/Time
EST
Temp
°C
Wind Pressure Rain since
9am
mm
Weather Cloud Vis
km
Sea
Height
m
Swell
Dir  Spd
kts
Gust
kts
hPa Trend Height
m
Period
s
Dir
22/11:30pm 15.4 S 13 19 1023.6 - 0.0 - - - - - - -
22/11:00pm 15.2 S 11 15 1023.9 - 0.0 - - - - - - -
22/10:30pm 15.3 S 12 15 1023.8 - 0.0 - - - - - - -
22/10:00pm 15.4 S 13 17 1023.5 - 0.0 - - - - - - -
22/09:30pm 15.3 S 15 18 1023.4 - 0.0 - - - - - - -
22/09:00pm 15.5 S 15 19 1023.3 - 0.0 - - - - - - -
22/08:30pm 15.7 S 16 19 1023.2 - 0.0 - - - - - - -
22/08:00pm 15.9 S 13 16 1023.0 - 0.0 - - - - - - -
22/07:30pm 16.1 S 9 12 1022.9 - 0.0 - - - - - - -
22/07:00pm 15.6 SSE 5 7 1022.8 - 0.0 - - - - - - -
22/06:30pm 16.1 S 15 18 1022.4 - 0.0 - - - - - - -

Other Formats:

Comma delimited format used in spreadsheet applications
http://www.bom.gov.au/fwo/IDT60701/IDT60701.94974.axf

JavaScript Object Notation format (JSON) in row-major order
http://www.bom.gov.au/fwo/IDT60701/IDT60701.94974.json